Island Park, ID (83433)

6:55 AM MDT on September 03, 2015 (GMT -0600)
ITD | | Change Station
CLOSE
Current Station
Personal Weather Station
Location: Island Park, ID
Elevation: 6617 ft
Nearby Weather Stations

Elev 6617 ft 44.62 °N, 111.34 °W | Updated 40 minutes ago

Partly Cloudy
Partly Cloudy
56.0 °F
Feels Like 56.0 °F
N
5.0
Wind Variable Wind from ESE
Gusts 6.0 mph

Today
High -- | Low -- °F
--% Chance of Precip.
Yesterday
High -- | Low -- °F
Precip. -- in
6:50 AM 7:58 PM
Waning Gibbous, 70% visible
Pressure 29.97 in
Visibility 10.0 miles
Clouds Scattered Clouds 11000 ft
Dew Point 40.0 °F
Humidity 57%
Rainfall in
Snow Depth Not available.
UV 0 out of 12
Pollen 7.40 out of 12
Air Quality Not available.
Flu Activity Not available.
METAR KWYS 031225Z AUTO 00000KT 10SM SCT110 05/00 A2997 RMK AO2
Pressure 29.97 in
Visibility 10.0 miles
Clouds Scattered Clouds 11000 ft
Dew Point 40.0 °F
Humidity 57%
Rainfall in
Snow Depth Not available.
UV 0 out of 12
Pollen 7.40 out of 12
Air Quality Not available.
Flu Activity Not available.
METAR KWYS 031225Z AUTO 00000KT 10SM SCT110 05/00 A2997 RMK AO2

10-Day Weather Forecast

×

Almanac

Astronomy

Sep. 03, 2015 Rise Set
Actual Time
Civil Twilight
Nautical Twilight
Astronomical Twilight
Moon
Length of Visible Light
Length of Day
Tomorrow will be .
, % of the Moon is Illuminated

Today's Extremes

State Highs State Lows

Community

WunderPhotos

Upload Photos

1,851,946 photos uploaded!

WunderBlogs® & News

Nearby

Air Quality

  Air Quality AQ Index Pollutant
Not available.

Snow Depth

Station Depth Elevation

Earthquake Activity

City Distance Mag. Time & Date
Minimum magnitude displayed is 2.5.

Coastal Water Temperatures

Place Temperature

Stations

Nearby Weather Stations

Station Location Temp. Windchill Dew Point Humidity Wind Precip. Elev Updated Type